createdAt,value
2024-04-06T00:00:23.649Z,989.83
2024-04-06T00:01:23.638Z,989.87
2024-04-06T00:02:23.594Z,989.88
2024-04-06T00:03:26.098Z,989.87
2024-04-06T00:04:24.937Z,989.86
2024-04-06T00:05:23.593Z,989.88
2024-04-06T00:06:23.551Z,989.87
2024-04-06T00:07:23.545Z,989.92
2024-04-06T00:08:23.577Z,989.82
2024-04-06T00:09:23.583Z,989.94
2024-04-06T00:10:23.561Z,989.96
2024-04-06T00:11:23.533Z,989.94
2024-04-06T00:12:23.517Z,989.97
2024-04-06T00:13:23.495Z,990.02
2024-04-06T00:14:23.533Z,990.03
2024-04-06T00:15:23.491Z,989.99
2024-04-06T00:16:23.455Z,990.05
2024-04-06T00:17:23.526Z,990.04
2024-04-06T00:18:23.463Z,989.95
2024-04-06T00:19:23.447Z,989.93
2024-04-06T00:20:23.485Z,989.90
2024-04-06T00:21:23.407Z,989.96
2024-04-06T00:22:23.382Z,989.97
2024-04-06T00:23:23.390Z,989.98
2024-04-06T00:24:23.347Z,990.00
2024-04-06T00:25:23.387Z,990.00
2024-04-06T00:26:23.343Z,990.02
2024-04-06T00:27:23.377Z,990.05
2024-04-06T00:28:23.355Z,990.08
2024-04-06T00:29:23.372Z,990.02
2024-04-06T00:30:23.279Z,990.06
2024-04-06T00:31:23.285Z,990.06
2024-04-06T00:32:23.309Z,990.09
2024-04-06T00:33:23.271Z,990.06
2024-04-06T00:34:23.256Z,990.04
2024-04-06T00:35:23.309Z,990.12
2024-04-06T00:36:23.279Z,990.10
2024-04-06T00:37:23.236Z,990.09
2024-04-06T00:38:23.232Z,990.09
2024-04-06T00:39:23.172Z,990.08
2024-04-06T00:40:23.180Z,990.09
2024-04-06T00:41:23.195Z,990.10
2024-04-06T00:42:23.159Z,990.12
2024-04-06T00:43:23.145Z,990.12
2024-04-06T00:44:23.139Z,990.12
2024-04-06T00:45:23.139Z,990.13
2024-04-06T00:46:23.153Z,990.12
2024-04-06T00:47:23.099Z,990.15
2024-04-06T00:48:23.116Z,990.18
2024-04-06T00:49:23.047Z,990.17
2024-04-06T00:50:23.100Z,990.11
2024-04-06T00:51:23.097Z,990.11
2024-04-06T00:52:23.050Z,990.13
2024-04-06T00:53:23.023Z,990.16
2024-04-06T00:54:23.045Z,990.12
2024-04-06T00:55:23.033Z,990.18
2024-04-06T00:56:23.043Z,990.22
2024-04-06T00:57:22.997Z,990.16
2024-04-06T00:58:22.993Z,990.16
2024-04-06T00:59:23.014Z,990.17
2024-04-06T01:00:22.930Z,990.22
2024-04-06T01:01:24.417Z,990.23
2024-04-06T01:02:23.952Z,990.24
2024-04-06T01:03:22.899Z,990.26
2024-04-06T01:04:22.898Z,990.26
2024-04-06T01:05:22.916Z,990.25
2024-04-06T01:06:22.881Z,990.29
2024-04-06T01:07:22.872Z,990.23
2024-04-06T01:08:22.863Z,990.21
2024-04-06T01:09:22.836Z,990.21
2024-04-06T01:10:22.873Z,990.22
2024-04-06T01:11:22.862Z,990.24
2024-04-06T01:12:22.844Z,990.23
2024-04-06T01:13:22.822Z,990.26
2024-04-06T01:14:22.827Z,990.31
2024-04-06T01:15:22.794Z,990.30
2024-04-06T01:16:22.813Z,990.34
2024-04-06T01:17:22.805Z,990.25
2024-04-06T01:18:22.741Z,990.29
2024-04-06T01:19:22.722Z,990.29
2024-04-06T01:20:22.720Z,990.28
2024-04-06T01:21:22.736Z,990.31
2024-04-06T01:22:22.674Z,990.36
2024-04-06T01:23:22.688Z,990.32
2024-04-06T01:24:22.681Z,990.31
2024-04-06T01:25:22.685Z,990.27
2024-04-06T01:26:22.716Z,990.25
2024-04-06T01:27:22.652Z,990.27
2024-04-06T01:28:22.655Z,990.31
2024-04-06T01:29:23.197Z,990.29
2024-04-06T01:30:22.622Z,990.25
2024-04-06T01:31:22.603Z,990.33
2024-04-06T01:32:22.629Z,990.29
2024-04-06T01:33:22.572Z,990.23
2024-04-06T01:34:22.582Z,990.29
2024-04-06T01:35:22.638Z,990.30
2024-04-06T01:36:22.521Z,990.34
2024-04-06T01:37:22.547Z,990.32
2024-04-06T01:38:22.525Z,990.29
2024-04-06T01:39:22.553Z,990.20
2024-04-06T01:40:22.479Z,990.19
2024-04-06T01:41:22.525Z,990.19
2024-04-06T01:42:22.492Z,990.14
2024-04-06T01:43:22.473Z,990.19
2024-04-06T01:44:22.499Z,990.22
2024-04-06T01:45:22.452Z,990.24
2024-04-06T01:46:22.432Z,990.12
2024-04-06T01:47:22.571Z,990.22
2024-04-06T01:48:22.412Z,990.15
2024-04-06T01:49:22.384Z,990.16
2024-04-06T01:50:22.437Z,990.21
2024-04-06T01:51:22.357Z,990.20
2024-04-06T01:52:22.377Z,990.14
2024-04-06T01:53:22.392Z,990.14
2024-04-06T01:54:22.378Z,990.15
2024-04-06T01:55:22.337Z,990.15
2024-04-06T01:56:22.330Z,990.12
2024-04-06T01:57:22.298Z,990.13
2024-04-06T01:58:22.256Z,990.15
2024-04-06T01:59:22.341Z,990.10
2024-04-06T02:00:22.293Z,990.14
2024-04-06T02:01:22.246Z,990.14
2024-04-06T02:02:22.228Z,990.13
2024-04-06T02:03:22.248Z,990.11
2024-04-06T02:04:22.232Z,990.12
2024-04-06T02:05:22.214Z,990.10
2024-04-06T02:06:22.222Z,990.04
2024-04-06T02:07:22.166Z,990.06
2024-04-06T02:08:22.149Z,990.14
2024-04-06T02:09:22.164Z,990.08
2024-04-06T02:10:22.219Z,990.11
2024-04-06T02:11:22.112Z,990.04
2024-04-06T02:12:22.104Z,989.97
2024-04-06T02:13:22.102Z,990.00
2024-04-06T02:14:22.091Z,989.98
2024-04-06T02:15:22.116Z,990.07
2024-04-06T02:16:22.067Z,990.04
2024-04-06T02:17:22.054Z,990.08
2024-04-06T02:18:22.039Z,990.03
2024-04-06T02:19:22.057Z,990.03
2024-04-06T02:20:22.074Z,990.05
2024-04-06T02:21:22.062Z,990.03
2024-04-06T02:22:21.989Z,990.01
2024-04-06T02:23:22.003Z,990.05
2024-04-06T02:24:21.947Z,990.07
2024-04-06T02:25:21.965Z,990.00
2024-04-06T02:26:22.000Z,990.01
2024-04-06T02:27:21.963Z,990.02
2024-04-06T02:28:21.932Z,990.00
2024-04-06T02:29:22.941Z,990.00
2024-04-06T02:30:21.915Z,989.97
2024-04-06T02:31:21.893Z,989.97
2024-04-06T02:32:21.878Z,989.97
2024-04-06T02:33:21.865Z,990.01
2024-04-06T02:34:21.835Z,989.97
2024-04-06T02:35:21.860Z,989.95
2024-04-06T02:36:21.867Z,990.03
2024-04-06T02:37:21.844Z,990.03
2024-04-06T02:38:21.826Z,990.12
2024-04-06T02:39:21.818Z,990.18
2024-04-06T02:40:21.759Z,990.19
2024-04-06T02:41:21.801Z,990.23
2024-04-06T02:42:21.790Z,990.31
2024-04-06T02:43:21.712Z,990.25
2024-04-06T02:44:21.714Z,990.26
2024-04-06T02:45:21.745Z,990.35
2024-04-06T02:46:21.712Z,990.31
2024-04-06T02:47:21.716Z,990.30
2024-04-06T02:48:21.695Z,990.41
2024-04-06T02:49:21.675Z,990.46
2024-04-06T02:50:22.650Z,990.52
2024-04-06T02:51:21.612Z,990.48
2024-04-06T02:52:21.669Z,990.51
2024-04-06T02:53:21.640Z,990.54
2024-04-06T02:54:21.605Z,990.51
2024-04-06T02:55:21.595Z,990.52
2024-04-06T02:56:21.591Z,990.44
2024-04-06T02:57:21.554Z,990.50
2024-04-06T02:58:21.557Z,990.47
2024-04-06T02:59:21.559Z,990.46
2024-04-06T03:00:21.564Z,990.63
2024-04-06T03:01:21.506Z,990.52
2024-04-06T03:02:21.512Z,990.51
2024-04-06T03:03:21.585Z,990.49
2024-04-06T03:04:21.480Z,990.60
2024-04-06T03:05:21.502Z,990.52
2024-04-06T03:06:21.468Z,990.48
2024-04-06T03:07:21.485Z,990.49
2024-04-06T03:08:21.467Z,990.56
2024-04-06T03:09:21.469Z,990.55
2024-04-06T03:10:21.420Z,990.56
2024-04-06T03:11:21.415Z,990.62
2024-04-06T03:12:21.372Z,990.60
2024-04-06T03:13:21.386Z,990.58
2024-04-06T03:14:21.399Z,990.62
2024-04-06T03:15:21.341Z,990.64
2024-04-06T03:16:21.397Z,990.70
2024-04-06T03:17:21.342Z,990.62
2024-04-06T03:18:21.327Z,990.56
2024-04-06T03:19:21.314Z,990.57
2024-04-06T03:20:21.327Z,990.59
2024-04-06T03:21:21.318Z,990.71
2024-04-06T03:22:21.311Z,990.68
2024-04-06T03:23:21.273Z,990.69
2024-04-06T03:24:21.255Z,990.63
2024-04-06T03:25:21.266Z,990.61
2024-04-06T03:26:21.224Z,990.75
2024-04-06T03:27:21.218Z,990.76
2024-04-06T03:28:21.384Z,990.77
2024-04-06T03:29:22.175Z,990.79
2024-04-06T03:30:21.179Z,990.89
2024-04-06T03:31:21.172Z,990.86
2024-04-06T03:32:21.162Z,990.90
2024-04-06T03:33:21.134Z,990.84
2024-04-06T03:34:21.109Z,990.80
2024-04-06T03:35:21.120Z,990.84
2024-04-06T03:36:22.183Z,990.89
2024-04-06T03:37:21.089Z,990.84
2024-04-06T03:38:21.074Z,990.83
2024-04-06T03:39:21.089Z,990.86
2024-04-06T03:40:21.074Z,990.83
2024-04-06T03:41:21.049Z,990.90
2024-04-06T03:42:21.030Z,990.92
2024-04-06T03:43:21.017Z,990.92
2024-04-06T03:44:21.021Z,990.91
2024-04-06T03:45:21.000Z,990.94
2024-04-06T03:46:20.995Z,990.96
2024-04-06T03:47:20.970Z,990.90
2024-04-06T03:48:20.959Z,990.91
2024-04-06T03:49:20.967Z,990.90
2024-04-06T03:50:20.968Z,990.91
2024-04-06T03:51:20.941Z,990.96
2024-04-06T03:52:21.077Z,990.90
2024-04-06T03:53:20.946Z,990.84
2024-04-06T03:54:20.916Z,990.88
2024-04-06T03:55:20.906Z,990.87
2024-04-06T03:56:20.862Z,990.83
2024-04-06T03:57:20.899Z,990.86
2024-04-06T03:58:20.857Z,990.81
2024-04-06T03:59:20.810Z,990.88
2024-04-06T04:00:20.818Z,990.89
2024-04-06T04:01:20.842Z,990.92
2024-04-06T04:02:20.830Z,990.90
2024-04-06T04:03:20.814Z,990.91
2024-04-06T04:04:20.799Z,990.90
2024-04-06T04:05:20.771Z,990.93
2024-04-06T04:06:20.755Z,990.94
2024-04-06T04:07:20.743Z,990.89
2024-04-06T04:08:20.737Z,990.88
2024-04-06T04:09:20.752Z,990.93
2024-04-06T04:10:20.714Z,990.89
2024-04-06T04:11:20.681Z,990.90
2024-04-06T04:12:21.753Z,990.95
2024-04-06T04:13:20.961Z,990.89
2024-04-06T04:14:20.671Z,990.84
2024-04-06T04:15:20.637Z,990.76
2024-04-06T04:16:21.544Z,990.74
2024-04-06T04:17:20.616Z,990.76
2024-04-06T04:18:20.617Z,990.77
2024-04-06T04:19:20.668Z,990.73
2024-04-06T04:20:20.679Z,990.76
2024-04-06T04:21:20.592Z,990.72
2024-04-06T04:22:20.542Z,990.70
2024-04-06T04:23:21.557Z,990.71
2024-04-06T04:24:20.566Z,990.72
2024-04-06T04:25:20.544Z,990.69
2024-04-06T04:26:20.535Z,990.60
2024-04-06T04:27:20.528Z,990.59
2024-04-06T04:28:20.511Z,990.58
2024-04-06T04:29:20.479Z,990.46
2024-04-06T04:30:20.454Z,990.49
2024-04-06T04:31:20.454Z,990.39
2024-04-06T04:32:20.438Z,990.41
2024-04-06T04:33:20.841Z,990.43
2024-04-06T04:34:20.406Z,990.49
2024-04-06T04:35:20.437Z,990.53
2024-04-06T04:36:20.414Z,990.58
2024-04-06T04:37:20.401Z,990.53
2024-04-06T04:38:20.422Z,990.57
2024-04-06T04:39:20.362Z,990.55
2024-04-06T04:40:20.373Z,990.59
2024-04-06T04:41:20.333Z,990.58
2024-04-06T04:42:20.327Z,990.66
2024-04-06T04:43:20.359Z,990.65
2024-04-06T04:44:35.736Z,990.67
2024-04-06T04:45:22.347Z,990.61
2024-04-06T04:46:20.284Z,990.62
2024-04-06T04:47:20.314Z,990.60
2024-04-06T04:48:20.265Z,990.62
2024-04-06T04:49:20.284Z,990.56
2024-04-06T04:50:20.276Z,990.58
2024-04-06T04:51:20.217Z,990.59
2024-04-06T04:52:20.237Z,990.59
2024-04-06T04:53:20.199Z,990.65
2024-04-06T04:54:20.213Z,990.69
2024-04-06T04:55:20.773Z,990.61
2024-04-06T04:56:20.173Z,990.69
2024-04-06T04:57:20.149Z,990.66
2024-04-06T04:58:20.136Z,990.68
2024-04-06T04:59:20.139Z,990.67
2024-04-06T05:00:20.135Z,990.67
2024-04-06T05:01:20.108Z,990.71
2024-04-06T05:02:20.118Z,990.65
2024-04-06T05:03:20.101Z,990.66
2024-04-06T05:04:20.087Z,990.67
2024-04-06T05:05:20.073Z,990.72
2024-04-06T05:06:20.060Z,990.72
2024-04-06T05:07:20.049Z,990.76
2024-04-06T05:08:21.016Z,990.82
2024-04-06T05:09:20.001Z,990.77
2024-04-06T05:10:19.993Z,990.76
2024-04-06T05:11:20.069Z,990.81
2024-04-06T05:12:19.955Z,990.77
2024-04-06T05:13:19.972Z,990.87
2024-04-06T05:14:19.945Z,990.90
2024-04-06T05:15:19.958Z,990.80
2024-04-06T05:16:19.976Z,990.84
2024-04-06T05:17:19.951Z,990.75
2024-04-06T05:18:19.902Z,990.83
2024-04-06T05:19:19.987Z,990.81
2024-04-06T05:20:19.868Z,990.84
2024-04-06T05:21:19.906Z,990.81
2024-04-06T05:22:19.838Z,990.90
2024-04-06T05:23:19.857Z,990.85
2024-04-06T05:24:19.835Z,990.86
2024-04-06T05:25:19.831Z,990.92
2024-04-06T05:26:19.817Z,990.86
2024-04-06T05:27:19.802Z,990.90
2024-04-06T05:28:19.798Z,990.88
2024-04-06T05:29:19.777Z,990.93
2024-04-06T05:30:19.785Z,990.93
2024-04-06T05:31:19.730Z,991.03
2024-04-06T05:32:19.752Z,990.96
2024-04-06T05:33:19.803Z,991.01
2024-04-06T05:34:19.762Z,990.98
2024-04-06T05:35:19.712Z,991.00
2024-04-06T05:36:19.674Z,990.99
2024-04-06T05:37:19.670Z,991.07
2024-04-06T05:38:19.663Z,991.14
2024-04-06T05:39:19.700Z,991.12
2024-04-06T05:40:19.626Z,991.07
2024-04-06T05:41:19.626Z,991.08
2024-04-06T05:42:19.630Z,991.00
2024-04-06T05:43:19.613Z,990.89
2024-04-06T05:44:19.606Z,990.89
2024-04-06T05:45:19.631Z,990.93
2024-04-06T05:46:19.575Z,990.87
2024-04-06T05:47:19.582Z,990.93
2024-04-06T05:48:19.572Z,990.89
2024-04-06T05:49:19.527Z,990.85
2024-04-06T05:50:19.544Z,990.89
2024-04-06T05:51:19.531Z,990.91
2024-04-06T05:52:19.804Z,990.92
2024-04-06T05:53:19.512Z,990.92
2024-04-06T05:54:19.543Z,990.91
2024-04-06T05:55:19.509Z,990.95
2024-04-06T05:56:19.447Z,990.96
2024-04-06T05:57:19.463Z,990.94
2024-04-06T05:58:19.446Z,990.95
2024-04-06T05:59:19.435Z,990.92
2024-04-06T06:00:19.443Z,990.85
2024-04-06T06:01:19.443Z,990.90
2024-04-06T06:02:19.414Z,990.92
2024-04-06T06:03:19.416Z,990.89
2024-04-06T06:04:19.411Z,990.86
2024-04-06T06:05:19.363Z,990.84
2024-04-06T06:06:19.389Z,990.84
2024-04-06T06:07:19.394Z,990.82
2024-04-06T06:08:19.342Z,990.81
2024-04-06T06:09:19.308Z,990.85
2024-04-06T06:10:19.300Z,990.86
2024-04-06T06:11:19.291Z,990.90
2024-04-06T06:12:19.380Z,990.93
2024-04-06T06:13:19.269Z,990.98
2024-04-06T06:14:21.823Z,990.98
2024-04-06T06:15:20.299Z,990.95
2024-04-06T06:16:20.107Z,991.06
2024-04-06T06:17:19.274Z,991.01
2024-04-06T06:18:19.237Z,991.02
2024-04-06T06:19:19.227Z,991.03
2024-04-06T06:20:19.205Z,990.96
2024-04-06T06:21:19.185Z,990.98
2024-04-06T06:22:19.184Z,991.03
2024-04-06T06:23:19.167Z,991.09
2024-04-06T06:24:19.136Z,991.11
2024-04-06T06:25:20.238Z,991.12
2024-04-06T06:26:19.154Z,991.14
2024-04-06T06:27:19.123Z,991.19
2024-04-06T06:28:19.124Z,991.22
2024-04-06T06:29:19.119Z,991.22
2024-04-06T06:30:19.103Z,991.18
2024-04-06T06:31:19.138Z,991.25
2024-04-06T06:32:19.086Z,991.19
2024-04-06T06:33:19.101Z,991.16
2024-04-06T06:34:19.094Z,991.14
2024-04-06T06:35:19.038Z,991.12
2024-04-06T06:38:20.028Z,991.08
2024-04-06T06:41:20.608Z,991.10
2024-04-06T06:42:18.991Z,991.10
2024-04-06T06:43:18.974Z,991.08
2024-04-06T06:44:18.961Z,991.16
2024-04-06T06:45:18.942Z,991.17
2024-04-06T06:46:18.940Z,991.12
2024-04-06T06:47:18.946Z,991.08
2024-04-06T06:48:18.883Z,991.06
2024-04-06T06:49:18.894Z,991.02
2024-04-06T06:50:18.901Z,990.91
2024-04-06T06:51:18.937Z,990.96
2024-04-06T06:52:18.878Z,990.93
2024-04-06T06:53:18.852Z,990.89
2024-04-06T06:54:18.828Z,990.88
2024-04-06T06:55:18.867Z,990.87
2024-04-06T06:56:18.816Z,990.82
2024-04-06T06:57:18.831Z,990.78
2024-04-06T06:58:18.802Z,990.69
2024-04-06T06:59:18.897Z,990.75
2024-04-06T07:00:20.534Z,990.73
2024-04-06T07:01:19.754Z,990.76
2024-04-06T07:02:18.771Z,990.73
2024-04-06T07:03:18.752Z,990.71
2024-04-06T07:04:18.770Z,990.72
2024-04-06T07:05:18.756Z,990.70
2024-04-06T07:07:06.685Z,990.69
2024-04-06T07:07:20.726Z,990.68
2024-04-06T07:08:18.728Z,990.59
2024-04-06T07:09:18.703Z,990.64
2024-04-06T07:10:18.731Z,990.72
2024-04-06T07:11:18.728Z,990.66
2024-04-06T07:12:18.657Z,990.60
2024-04-06T07:13:18.662Z,990.63
2024-04-06T07:14:18.622Z,990.63
2024-04-06T07:15:18.631Z,990.65
2024-04-06T07:16:18.585Z,990.63
2024-04-06T07:17:18.576Z,990.63
2024-04-06T07:18:18.600Z,990.59
2024-04-06T07:19:18.573Z,990.70
2024-04-06T07:20:18.551Z,990.69
2024-04-06T07:21:18.580Z,990.67
2024-04-06T07:22:18.549Z,990.69
2024-04-06T07:23:18.508Z,990.72
2024-04-06T07:24:18.503Z,990.62
2024-04-06T07:25:18.500Z,990.68
2024-04-06T07:26:18.485Z,990.70
2024-04-06T07:27:18.482Z,990.75
2024-04-06T07:28:18.494Z,990.67
2024-04-06T07:29:18.462Z,990.61
2024-04-06T07:30:18.447Z,990.59
2024-04-06T07:31:18.473Z,990.65
2024-04-06T07:32:18.441Z,990.63
2024-04-06T07:33:18.430Z,990.54
2024-04-06T07:34:18.397Z,990.58
2024-04-06T07:35:18.376Z,990.45
2024-04-06T07:36:18.427Z,990.48
2024-04-06T07:37:18.422Z,990.48
2024-04-06T07:38:20.617Z,990.52
2024-04-06T07:39:20.174Z,990.48
2024-04-06T07:40:20.710Z,990.53
2024-04-06T07:41:18.350Z,990.59
2024-04-06T07:42:18.377Z,990.47
2024-04-06T07:43:18.352Z,990.51
2024-04-06T07:44:18.324Z,990.56
2024-04-06T07:45:18.309Z,990.58
2024-04-06T07:46:18.336Z,990.61
2024-04-06T07:47:18.269Z,990.64
2024-04-06T07:48:18.322Z,990.63
2024-04-06T07:49:18.264Z,990.70
2024-04-06T07:50:18.242Z,990.61
2024-04-06T07:51:18.211Z,990.65
2024-04-06T07:52:18.223Z,990.77
2024-04-06T07:53:18.211Z,990.66
2024-04-06T07:54:18.223Z,990.66
2024-04-06T07:55:18.181Z,990.68
2024-04-06T07:56:18.164Z,990.58
2024-04-06T07:57:18.140Z,990.65
2024-04-06T07:58:18.188Z,990.74
2024-04-06T07:59:18.137Z,990.76
2024-04-06T08:00:18.152Z,990.73
2024-04-06T08:01:18.140Z,990.80
2024-04-06T08:02:18.100Z,990.79
2024-04-06T08:03:18.130Z,990.75
2024-04-06T08:04:18.101Z,990.68
2024-04-06T08:05:18.089Z,990.71
2024-04-06T08:06:18.208Z,990.63
2024-04-06T08:07:18.103Z,990.69
2024-04-06T08:08:18.104Z,990.67
2024-04-06T08:09:18.024Z,990.62
2024-04-06T08:10:19.058Z,990.64
2024-04-06T08:11:18.027Z,990.58
2024-04-06T08:12:18.025Z,990.66
2024-04-06T08:13:18.018Z,990.61
2024-04-06T08:14:25.029Z,990.60
2024-04-06T08:15:18.982Z,990.54
2024-04-06T08:16:18.974Z,990.50
2024-04-06T08:17:17.934Z,990.55
2024-04-06T08:18:17.989Z,990.56
2024-04-06T08:19:17.936Z,990.48
2024-04-06T08:20:17.962Z,990.45
2024-04-06T08:21:17.910Z,990.45
2024-04-06T08:22:17.887Z,990.44
2024-04-06T08:23:17.903Z,990.38
2024-04-06T08:24:17.862Z,990.36
2024-04-06T08:25:17.915Z,990.30
2024-04-06T08:26:17.867Z,990.32
2024-04-06T08:27:17.918Z,990.26
2024-04-06T08:28:17.972Z,990.34
2024-04-06T08:29:17.919Z,990.31
2024-04-06T08:30:17.912Z,990.32
2024-04-06T08:31:17.859Z,990.26
2024-04-06T08:32:17.838Z,990.24
2024-04-06T08:33:17.783Z,990.27
2024-04-06T08:34:17.843Z,990.20
2024-04-06T08:35:18.048Z,990.40
2024-04-06T08:36:18.110Z,990.12
2024-04-06T08:37:18.059Z,990.27
2024-04-06T08:38:17.764Z,990.22
2024-04-06T08:39:17.838Z,990.22
2024-04-06T08:40:17.785Z,990.26
2024-04-06T08:41:17.800Z,990.24
2024-04-06T08:42:17.743Z,990.22
2024-04-06T08:43:17.764Z,990.21
2024-04-06T08:44:17.724Z,990.21
2024-04-06T08:45:17.783Z,990.17
2024-04-06T08:46:17.679Z,990.19
2024-04-06T08:47:17.731Z,990.14
2024-04-06T08:48:17.722Z,990.14
2024-04-06T08:49:17.759Z,990.12
2024-04-06T08:50:17.641Z,990.11
2024-04-06T08:51:17.663Z,990.20
2024-04-06T08:52:17.775Z,990.14
2024-04-06T08:53:17.595Z,990.09
2024-04-06T08:54:17.794Z,990.11
2024-04-06T08:55:17.658Z,990.08
2024-04-06T08:56:17.536Z,990.09
2024-04-06T08:57:17.792Z,990.07
2024-04-06T08:58:17.631Z,990.02
2024-04-06T08:59:17.614Z,990.06
2024-04-06T09:00:17.654Z,990.01
2024-04-06T09:01:17.589Z,990.01
2024-04-06T09:02:17.615Z,989.98
2024-04-06T09:03:17.516Z,990.12
2024-04-06T09:04:17.548Z,990.11
2024-04-06T09:05:17.453Z,990.20
2024-04-06T09:06:17.740Z,990.20
2024-04-06T09:07:17.502Z,990.11
2024-04-06T09:08:18.054Z,990.04
2024-04-06T09:09:17.557Z,990.02
2024-04-06T09:10:17.449Z,990.01
2024-04-06T09:11:17.817Z,990.09
2024-04-06T09:12:17.415Z,990.10
2024-04-06T09:13:18.136Z,990.10
2024-04-06T09:14:17.396Z,990.17
2024-04-06T09:15:17.563Z,990.15
2024-04-06T09:16:17.411Z,990.09
2024-04-06T09:17:17.369Z,990.12
2024-04-06T09:18:17.429Z,990.14
2024-04-06T09:19:17.441Z,989.99
2024-04-06T09:20:17.300Z,990.03
2024-04-06T09:21:17.350Z,990.09
2024-04-06T09:22:17.447Z,990.08
2024-04-06T09:23:17.360Z,990.08
2024-04-06T09:24:17.862Z,990.10
2024-04-06T09:25:17.439Z,990.05
2024-04-06T09:26:17.243Z,989.99
2024-04-06T09:27:17.294Z,989.94
2024-04-06T09:28:17.431Z,989.85
2024-04-06T09:29:17.258Z,990.02
2024-04-06T09:30:17.482Z,989.99
2024-04-06T09:31:17.238Z,989.94
2024-04-06T09:32:17.229Z,989.89
2024-04-06T09:33:17.238Z,990.01
2024-04-06T09:34:17.227Z,989.84
2024-04-06T09:35:17.150Z,990.00
2024-04-06T09:36:17.206Z,989.88
2024-04-06T09:37:17.381Z,989.86
2024-04-06T09:38:17.167Z,989.87
2024-04-06T09:39:17.139Z,989.88
2024-04-06T09:40:17.208Z,989.89
2024-04-06T09:41:17.338Z,989.79
2024-04-06T09:42:17.100Z,989.83
2024-04-06T09:43:17.119Z,989.85
2024-04-06T09:44:17.067Z,989.65
2024-04-06T09:45:17.049Z,989.82
2024-04-06T09:46:17.127Z,989.77
2024-04-06T09:47:17.087Z,989.70
2024-04-06T09:48:17.028Z,989.72
2024-04-06T09:49:17.138Z,989.66
2024-04-06T09:50:18.060Z,989.70
2024-04-06T09:51:17.053Z,989.81
2024-04-06T09:52:17.081Z,989.65
2024-04-06T09:53:16.982Z,989.78
2024-04-06T09:54:16.993Z,989.73
2024-04-06T09:55:17.092Z,989.73
2024-04-06T09:56:17.060Z,989.67
2024-04-06T09:57:16.982Z,989.69
2024-04-06T09:58:17.058Z,989.81
2024-04-06T09:59:16.902Z,989.76
2024-04-06T10:00:16.960Z,989.70
2024-04-06T10:01:16.943Z,989.71
2024-04-06T10:02:16.947Z,989.78
2024-04-06T10:03:16.942Z,989.68
2024-04-06T10:04:16.903Z,989.72
2024-04-06T10:05:16.840Z,989.85
2024-04-06T10:06:16.874Z,989.69
2024-04-06T10:07:16.872Z,989.59
2024-04-06T10:08:16.890Z,989.62
2024-04-06T10:09:16.844Z,989.67
2024-04-06T10:10:16.952Z,989.58
2024-04-06T10:11:16.793Z,989.61
2024-04-06T10:12:16.771Z,989.58
2024-04-06T10:13:16.851Z,989.55
2024-04-06T10:14:19.316Z,989.60
2024-04-06T10:15:17.821Z,989.60
2024-04-06T10:16:16.791Z,989.55
2024-04-06T10:17:16.761Z,989.50
2024-04-06T10:18:16.727Z,989.51
2024-04-06T10:19:16.755Z,989.48
2024-04-06T10:20:16.706Z,989.58
2024-04-06T10:21:16.675Z,989.48
2024-04-06T10:22:16.786Z,989.55
2024-04-06T10:23:16.682Z,989.48
2024-04-06T10:24:16.672Z,989.54
2024-04-06T10:25:16.742Z,989.52
2024-04-06T10:26:16.680Z,989.48
2024-04-06T10:27:16.684Z,989.54
2024-04-06T10:28:16.687Z,989.59
2024-04-06T10:29:17.164Z,989.43
2024-04-06T10:30:16.622Z,989.52
2024-04-06T10:31:16.645Z,989.58
2024-04-06T10:32:16.636Z,989.51
2024-04-06T10:33:16.635Z,989.57
2024-04-06T10:34:16.628Z,989.51
2024-04-06T10:35:16.611Z,989.54
2024-04-06T10:36:16.545Z,989.47
2024-04-06T10:37:16.585Z,989.54
2024-04-06T10:38:16.524Z,989.58
2024-04-06T10:39:16.635Z,989.48
2024-04-06T10:40:16.546Z,989.59
2024-04-06T10:41:16.674Z,989.59
2024-04-06T10:42:16.481Z,989.49
2024-04-06T10:43:16.481Z,989.46
2024-04-06T10:44:16.453Z,989.46
2024-04-06T10:45:16.466Z,989.54
2024-04-06T10:46:16.477Z,989.39
2024-04-06T10:47:16.570Z,989.51
2024-04-06T10:48:16.433Z,989.47
2024-04-06T10:49:16.449Z,989.40
2024-04-06T10:50:16.391Z,989.40
2024-04-06T10:51:16.493Z,989.44
2024-04-06T10:52:16.578Z,989.66
2024-04-06T10:53:16.389Z,989.53
2024-04-06T10:54:16.460Z,989.49
2024-04-06T10:55:16.467Z,989.51
2024-04-06T10:56:16.371Z,989.44
2024-04-06T10:57:16.386Z,989.41
2024-04-06T10:58:16.377Z,989.64
2024-04-06T10:59:16.488Z,989.62
2024-04-06T11:00:16.286Z,989.43
2024-04-06T11:01:16.296Z,989.38
2024-04-06T11:02:16.287Z,989.40
2024-04-06T11:03:16.317Z,989.39
2024-04-06T11:04:16.334Z,989.52
2024-04-06T11:05:16.240Z,989.35
2024-04-06T11:06:16.249Z,989.44
2024-04-06T11:07:16.263Z,989.38
2024-04-06T11:08:16.265Z,989.38
2024-04-06T11:09:16.212Z,989.37
2024-04-06T11:10:16.255Z,989.42
2024-04-06T11:11:16.265Z,989.36
2024-04-06T11:12:16.273Z,989.39
2024-04-06T11:13:16.230Z,989.36
2024-04-06T11:14:16.255Z,989.39
2024-04-06T11:15:16.200Z,989.35
2024-04-06T11:16:16.212Z,989.42
2024-04-06T11:17:16.123Z,989.29
2024-04-06T11:18:16.127Z,989.17
2024-04-06T11:19:16.094Z,989.22
2024-04-06T11:20:16.100Z,989.23
2024-04-06T11:21:16.074Z,989.10
2024-04-06T11:22:17.098Z,989.30
2024-04-06T11:23:16.116Z,989.18
2024-04-06T11:24:16.066Z,989.17
2024-04-06T11:25:16.071Z,989.18
2024-04-06T11:26:16.046Z,989.18
2024-04-06T11:27:16.055Z,989.08
2024-04-06T11:28:16.079Z,989.04
2024-04-06T11:29:16.008Z,989.02
2024-04-06T11:30:16.000Z,989.02
2024-04-06T11:31:16.055Z,989.06
2024-04-06T11:32:16.004Z,988.94
2024-04-06T11:33:15.997Z,989.03
2024-04-06T11:34:16.029Z,989.15
2024-04-06T11:35:15.990Z,988.95
2024-04-06T11:36:15.976Z,989.04
2024-04-06T11:37:15.956Z,988.94
2024-04-06T11:38:16.014Z,988.94
2024-04-06T11:39:16.013Z,988.95
2024-04-06T11:40:15.989Z,989.03
2024-04-06T11:41:15.865Z,988.85
2024-04-06T11:42:15.969Z,989.00
2024-04-06T11:43:15.905Z,988.96
2024-04-06T11:44:15.899Z,989.09
2024-04-06T11:45:15.872Z,989.05
2024-04-06T11:46:15.853Z,989.01
2024-04-06T11:47:15.937Z,989.12
2024-04-06T11:48:15.900Z,989.09
2024-04-06T11:49:15.903Z,989.02
2024-04-06T11:50:15.793Z,988.88
2024-04-06T11:51:15.849Z,988.78
2024-04-06T11:52:15.779Z,988.84
2024-04-06T11:53:15.813Z,988.88
2024-04-06T11:54:15.803Z,988.91
2024-04-06T11:55:15.781Z,988.94
2024-04-06T11:56:15.751Z,989.08
2024-04-06T11:57:15.717Z,988.88
2024-04-06T11:58:15.731Z,988.86
2024-04-06T11:59:15.775Z,988.77
2024-04-06T12:00:17.459Z,988.79
2024-04-06T12:01:15.727Z,988.87
2024-04-06T12:02:15.668Z,988.82
2024-04-06T12:03:15.711Z,988.79
2024-04-06T12:04:15.700Z,988.79
2024-04-06T12:05:15.662Z,988.78
2024-04-06T12:06:15.626Z,988.79
2024-04-06T12:07:15.705Z,988.75
2024-04-06T12:08:15.683Z,988.72
2024-04-06T12:09:15.604Z,988.73
2024-04-06T12:10:16.693Z,988.75
2024-04-06T12:11:15.674Z,988.74
2024-04-06T12:12:15.582Z,988.78
2024-04-06T12:13:15.539Z,988.78
2024-04-06T12:14:15.598Z,988.86
2024-04-06T12:15:15.602Z,988.94
2024-04-06T12:16:15.614Z,988.77
2024-04-06T12:17:15.529Z,988.73
2024-04-06T12:18:15.507Z,988.73
2024-04-06T12:19:15.520Z,988.77
2024-04-06T12:20:15.503Z,988.78
2024-04-06T12:21:15.478Z,988.74
2024-04-06T12:22:15.522Z,988.73
2024-04-06T12:23:16.465Z,988.67
2024-04-06T12:24:15.446Z,988.70
2024-04-06T12:25:15.490Z,988.65
2024-04-06T12:26:15.437Z,988.72
2024-04-06T12:27:15.434Z,988.63
2024-04-06T12:28:15.552Z,988.76
2024-04-06T12:29:15.370Z,988.75
2024-04-06T12:30:15.406Z,988.69
2024-04-06T12:31:15.404Z,988.74
2024-04-06T12:32:15.384Z,988.61